Terminal Aerodrome Forecast
Issued by NWS Corpus Christi, TX

Home | Current Version | Previous Version | Text Only | Print | Product List | Glossary On
Versions: 1 2 3 4 5 6 7 8 9 10 11 12
000
FTUS44 KCRP 281700
TAFVCT
TAF
KVCT 281738Z 2818/0118 05011KT 3SM -RA BR OVC007
      TEMPO 2818/2820 6SM BR OVC012
     FM010100 01009KT 3SM -RA BR OVC004
     FM011400 36007KT 1SM BR OVC003=

USA.gov is the U.S. government's official web portal to all federal, state and local government web resources and services.